createdAt,value
2019-02-16T00:01:04.910Z,15.97
2019-02-16T00:03:34.076Z,21.83
2019-02-16T00:06:03.542Z,22.90
2019-02-16T00:08:32.996Z,26.90
2019-02-16T00:11:02.113Z,24.53
2019-02-16T00:13:31.269Z,22.13
2019-02-16T00:16:00.367Z,14.53
2019-02-16T00:18:29.572Z,14.30
2019-02-16T00:21:04.095Z,12.23
2019-02-16T00:23:29.581Z,11.47
2019-02-16T00:25:59.013Z,16.63
2019-02-16T00:28:28.179Z,14.57
2019-02-16T00:30:57.290Z,22.57
2019-02-16T00:33:26.562Z,24.60
2019-02-16T00:35:55.724Z,18.60
2019-02-16T00:38:25.000Z,21.00
2019-02-16T00:40:54.198Z,24.97
2019-02-16T00:43:23.354Z,23.13
2019-02-16T00:45:52.485Z,28.97
2019-02-16T00:48:21.713Z,29.70
2019-02-16T00:50:50.830Z,27.80
2019-02-16T00:53:20.010Z,20.73
2019-02-16T00:55:49.147Z,16.83
2019-02-16T00:58:18.575Z,18.00
2019-02-16T01:00:47.693Z,22.13
2019-02-16T01:03:16.803Z,22.97
2019-02-16T01:05:45.950Z,18.20
2019-02-16T01:08:15.105Z,26.73
2019-02-16T01:10:44.818Z,20.60
2019-02-16T01:13:13.946Z,20.27
2019-02-16T01:15:43.100Z,21.73
2019-02-16T01:18:12.523Z,29.80
2019-02-16T01:20:41.737Z,21.33
2019-02-16T01:23:10.901Z,19.60
2019-02-16T01:25:40.469Z,18.67
2019-02-16T01:28:09.572Z,17.10
2019-02-16T01:30:38.773Z,16.63
2019-02-16T01:33:07.934Z,17.53
2019-02-16T01:35:37.402Z,16.37
2019-02-16T01:38:06.539Z,13.83
2019-02-16T01:40:35.714Z,15.67
2019-02-16T01:43:04.824Z,14.40
2019-02-16T01:45:34.002Z,17.77
2019-02-16T01:48:03.111Z,16.87
2019-02-16T01:50:32.283Z,19.33
2019-02-16T01:53:01.395Z,18.97
2019-02-16T01:55:30.540Z,17.13
2019-02-16T01:57:59.671Z,13.00
2019-02-16T02:00:28.916Z,15.80
2019-02-16T02:02:58.089Z,15.93
2019-02-16T02:05:27.257Z,15.27
2019-02-16T02:07:56.474Z,21.63
2019-02-16T02:10:25.704Z,18.43
2019-02-16T02:12:54.817Z,17.20
2019-02-16T02:15:24.015Z,14.37
2019-02-16T02:17:53.152Z,19.87
2019-02-16T02:20:24.030Z,16.90
2019-02-16T02:22:53.149Z,20.37
2019-02-16T02:25:22.315Z,17.53
2019-02-16T02:27:51.457Z,15.97
2019-02-16T02:30:20.643Z,14.80
2019-02-16T02:32:49.747Z,12.07
2019-02-16T02:35:19.166Z,11.97
2019-02-16T02:37:48.319Z,13.23
2019-02-16T02:40:17.470Z,12.83
2019-02-16T02:42:46.628Z,11.53
2019-02-16T02:45:15.801Z,10.53
2019-02-16T02:47:44.933Z,12.90
2019-02-16T02:50:14.067Z,12.70
2019-02-16T02:52:43.168Z,26.90
2019-02-16T02:55:12.346Z,25.87
2019-02-16T02:57:41.491Z,44.43
2019-02-16T03:00:10.665Z,36.57
2019-02-16T03:02:39.816Z,27.77
2019-02-16T03:05:09.481Z,30.27
2019-02-16T03:07:38.637Z,34.43
2019-02-16T03:10:08.027Z,37.30
2019-02-16T03:12:37.553Z,27.20
2019-02-16T03:15:07.216Z,21.00
2019-02-16T03:17:36.340Z,21.50
2019-02-16T03:20:05.720Z,18.47
2019-02-16T03:23:14.512Z,14.00
2019-02-16T03:25:47.184Z,12.87
2019-02-16T03:28:41.042Z,8.97
2019-02-16T03:31:47.879Z,11.00
2019-02-16T03:34:47.190Z,8.57
2019-02-16T03:37:57.736Z,9.00
2019-02-16T03:40:27.038Z,7.07
2019-02-16T03:42:56.156Z,8.77
2019-02-16T03:45:25.296Z,6.53
2019-02-16T03:47:54.465Z,6.83
2019-02-16T03:50:23.588Z,8.80
2019-02-16T03:52:52.735Z,10.33
2019-02-16T03:55:21.864Z,18.43
2019-02-16T03:57:51.054Z,15.93
2019-02-16T04:00:20.158Z,15.07
2019-02-16T04:02:49.308Z,13.07
2019-02-16T04:05:18.413Z,12.00
2019-02-16T04:07:47.573Z,11.10
2019-02-16T04:10:16.721Z,10.10
2019-02-16T04:12:45.830Z,10.27
2019-02-16T04:15:14.946Z,11.47
2019-02-16T04:17:44.123Z,11.03
2019-02-16T04:20:13.244Z,22.30
2019-02-16T04:22:42.379Z,10.10
2019-02-16T04:25:11.531Z,10.87
2019-02-16T04:27:40.697Z,11.67
2019-02-16T04:30:09.894Z,12.10
2019-02-16T04:32:39.036Z,13.20
2019-02-16T04:35:08.200Z,9.67
2019-02-16T04:37:37.355Z,13.40
2019-02-16T04:40:06.742Z,10.57
2019-02-16T04:42:35.926Z,12.23
2019-02-16T04:45:05.187Z,10.80
2019-02-16T04:47:34.343Z,11.50
2019-02-16T04:50:03.457Z,11.20
2019-02-16T04:52:35.168Z,9.80
2019-02-16T04:55:03.472Z,9.20
2019-02-16T04:57:32.680Z,9.33
2019-02-16T05:00:01.828Z,8.83
2019-02-16T05:02:30.959Z,8.60
2019-02-16T05:05:00.140Z,8.27
2019-02-16T05:07:29.389Z,6.53
2019-02-16T05:09:58.516Z,8.87
2019-02-16T05:12:27.646Z,7.50
2019-02-16T05:14:56.768Z,6.93
2019-02-16T05:17:25.939Z,8.37
2019-02-16T05:19:55.359Z,8.27
2019-02-16T05:22:24.540Z,7.87
2019-02-16T05:24:53.663Z,7.57
2019-02-16T05:27:22.816Z,7.33
2019-02-16T05:29:51.920Z,6.23
2019-02-16T05:32:21.075Z,6.93
2019-02-16T05:34:50.459Z,28.23
2019-02-16T05:37:19.595Z,35.03
2019-02-16T05:39:48.749Z,23.83
2019-02-16T05:42:17.906Z,25.73
2019-02-16T05:44:47.134Z,26.60
2019-02-16T05:47:16.533Z,21.73
2019-02-16T05:49:45.691Z,24.97
2019-02-16T05:52:14.831Z,20.40
2019-02-16T05:54:43.952Z,18.63
2019-02-16T05:57:13.475Z,18.83
2019-02-16T05:59:42.630Z,21.63
2019-02-16T06:02:11.819Z,18.23
2019-02-16T06:04:40.968Z,18.10
2019-02-16T06:07:10.120Z,17.13
2019-02-16T06:09:39.285Z,16.23
2019-02-16T06:12:08.846Z,15.70
2019-02-16T06:14:38.333Z,13.33
2019-02-16T06:17:07.810Z,17.17
2019-02-16T06:19:37.030Z,22.07
2019-02-16T06:22:06.195Z,19.17
2019-02-16T06:24:35.696Z,21.20
2019-02-16T06:27:04.890Z,24.70
2019-02-16T06:29:34.030Z,25.87
2019-02-16T06:32:03.312Z,27.60
2019-02-16T06:34:32.952Z,23.20
2019-02-16T06:37:09.574Z,28.30
2019-02-16T06:39:38.730Z,52.80
2019-02-16T06:42:08.003Z,34.87
2019-02-16T06:44:37.153Z,28.20
2019-02-16T06:47:06.569Z,25.33
2019-02-16T06:49:35.780Z,26.10
2019-02-16T06:52:04.914Z,26.20
2019-02-16T06:54:34.064Z,23.93
2019-02-16T06:57:06.833Z,22.20
2019-02-16T06:59:36.106Z,20.10
2019-02-16T07:02:05.362Z,22.77
2019-02-16T07:04:34.498Z,21.17
2019-02-16T07:07:05.230Z,22.10
2019-02-16T07:09:34.348Z,22.47
2019-02-16T07:12:04.061Z,21.83
2019-02-16T07:14:34.008Z,26.97
2019-02-16T07:17:22.470Z,22.53
2019-02-16T07:19:54.214Z,22.10
2019-02-16T07:22:24.725Z,20.53
2019-02-16T07:24:53.921Z,21.90
2019-02-16T07:27:23.210Z,24.87
2019-02-16T07:29:52.335Z,26.70
2019-02-16T07:32:21.521Z,26.80
2019-02-16T07:34:50.881Z,24.93
2019-02-16T07:37:19.987Z,19.33
2019-02-16T07:39:49.076Z,20.10
2019-02-16T07:42:18.246Z,19.13
2019-02-16T07:45:09.446Z,28.03
2019-02-16T07:47:48.014Z,23.67
2019-02-16T07:50:28.489Z,24.37
2019-02-16T07:53:05.594Z,25.43
2019-02-16T07:55:41.942Z,31.27
2019-02-16T07:58:30.051Z,25.03
2019-02-16T08:01:36.243Z,24.97
2019-02-16T08:04:24.818Z,24.70
2019-02-16T08:07:08.914Z,19.47
2019-02-16T08:09:55.625Z,18.97
2019-02-16T08:12:56.132Z,17.17
2019-02-16T08:15:43.431Z,17.53
2019-02-16T08:18:31.499Z,27.97
2019-02-16T08:21:23.235Z,15.90
2019-02-16T08:24:01.503Z,11.30
2019-02-16T08:26:52.349Z,7.77
2019-02-16T08:29:28.597Z,11.33
2019-02-16T08:32:20.042Z,7.33
2019-02-16T08:34:54.354Z,6.37
2019-02-16T08:37:36.330Z,8.07
2019-02-16T08:40:23.552Z,6.33
2019-02-16T08:43:20.615Z,5.67
2019-02-16T08:45:57.727Z,6.10
2019-02-16T08:48:44.928Z,4.83
2019-02-16T08:51:19.889Z,6.10
2019-02-16T08:54:10.824Z,8.37
2019-02-16T08:57:01.935Z,4.97
2019-02-16T08:59:41.511Z,4.07
2019-02-16T09:02:17.432Z,4.90
2019-02-16T09:05:04.209Z,6.33
2019-02-16T09:07:55.513Z,5.30
2019-02-16T09:11:01.886Z,4.83
2019-02-16T09:13:59.208Z,3.93
2019-02-16T09:16:45.008Z,3.97
2019-02-16T09:19:27.224Z,4.00
2019-02-16T09:22:15.299Z,4.00
2019-02-16T09:24:56.120Z,5.20
2019-02-16T09:27:47.259Z,4.73
2019-02-16T09:30:44.574Z,4.37
2019-02-16T09:33:45.051Z,3.60
2019-02-16T09:36:39.233Z,4.40
2019-02-16T09:39:30.144Z,4.57
2019-02-16T09:42:12.481Z,3.50
2019-02-16T09:45:06.709Z,3.33
2019-02-16T09:47:44.876Z,3.60
2019-02-16T09:50:29.008Z,3.57
2019-02-16T09:53:15.997Z,5.27
2019-02-16T09:56:02.695Z,3.30
2019-02-16T09:59:00.108Z,3.43
2019-02-16T10:02:03.628Z,3.73
2019-02-16T10:05:00.472Z,3.53
2019-02-16T10:07:37.733Z,3.10
2019-02-16T10:10:26.059Z,3.90
2019-02-16T10:13:07.570Z,4.90
2019-02-16T10:15:56.378Z,5.77
2019-02-16T10:18:32.810Z,3.73
2019-02-16T10:21:17.662Z,5.63
2019-02-16T10:24:04.580Z,4.70
2019-02-16T10:27:05.522Z,4.47
2019-02-16T10:29:53.190Z,4.30
2019-02-16T10:32:36.743Z,4.23
2019-02-16T10:35:30.799Z,5.23
2019-02-16T10:38:11.048Z,4.10
2019-02-16T10:40:57.695Z,3.70
2019-02-16T10:43:48.972Z,5.93
2019-02-16T10:46:37.096Z,4.83
2019-02-16T10:49:27.996Z,4.77
2019-02-16T10:52:19.150Z,3.90
2019-02-16T10:55:07.243Z,4.93
2019-02-16T10:58:01.587Z,5.90
2019-02-16T11:00:48.623Z,6.00
2019-02-16T11:03:35.345Z,4.50
2019-02-16T11:06:19.976Z,5.10
2019-02-16T11:09:11.210Z,4.30
2019-02-16T11:11:56.909Z,4.30
2019-02-16T11:14:41.993Z,7.07
2019-02-16T11:17:30.163Z,6.50
2019-02-16T11:20:14.500Z,4.77
2019-02-16T11:23:01.397Z,4.90
2019-02-16T11:25:53.033Z,5.97
2019-02-16T11:28:50.415Z,5.37
2019-02-16T11:31:47.631Z,5.60
2019-02-16T11:34:42.019Z,4.50
2019-02-16T11:37:19.590Z,5.27
2019-02-16T11:40:07.340Z,5.93
2019-02-16T11:42:55.508Z,4.90
2019-02-16T11:45:42.530Z,5.50
2019-02-16T11:48:20.137Z,5.37
2019-02-16T11:50:59.306Z,6.73
2019-02-16T11:53:43.343Z,6.17
2019-02-16T11:56:31.632Z,5.10
2019-02-16T11:59:19.980Z,5.70
2019-02-16T12:02:11.226Z,7.83
2019-02-16T12:04:50.999Z,4.70
2019-02-16T12:07:44.918Z,6.83
2019-02-16T12:10:30.779Z,6.07
2019-02-16T12:13:25.250Z,6.27
2019-02-16T12:16:15.599Z,6.23
2019-02-16T12:18:56.073Z,5.63
2019-02-16T12:21:53.227Z,5.53
2019-02-16T12:24:30.496Z,5.40
2019-02-16T12:27:17.368Z,6.43
2019-02-16T12:29:50.992Z,5.57
2019-02-16T12:32:28.672Z,6.17
2019-02-16T12:35:12.856Z,5.63
2019-02-16T12:37:54.815Z,5.63
2019-02-16T12:40:36.503Z,6.63
2019-02-16T12:43:17.005Z,5.50
2019-02-16T12:45:51.602Z,7.17
2019-02-16T12:48:45.896Z,5.13
2019-02-16T12:51:23.579Z,5.67
2019-02-16T12:54:20.859Z,8.17
2019-02-16T12:56:54.841Z,6.13
2019-02-16T12:59:41.960Z,6.07
2019-02-16T13:02:19.054Z,7.83
2019-02-16T13:05:25.533Z,6.57
2019-02-16T13:08:04.100Z,8.10
2019-02-16T13:10:52.255Z,7.03
2019-02-16T13:13:44.763Z,6.37
2019-02-16T13:16:32.899Z,5.70
2019-02-16T13:19:08.667Z,7.03
2019-02-16T13:21:45.048Z,7.13
2019-02-16T13:24:39.651Z,6.53
2019-02-16T13:27:27.773Z,6.50
2019-02-16T13:30:14.844Z,6.40
2019-02-16T13:33:08.341Z,6.90
2019-02-16T13:35:53.038Z,6.77
2019-02-16T13:38:32.283Z,6.60
2019-02-16T13:41:23.170Z,6.30
2019-02-16T13:44:04.822Z,8.57
2019-02-16T13:46:51.715Z,6.50
2019-02-16T13:49:34.127Z,7.13
2019-02-16T13:52:30.985Z,7.90
2019-02-16T13:55:33.480Z,8.07
2019-02-16T13:58:21.502Z,7.00
2019-02-16T14:01:00.466Z,12.83
2019-02-16T14:03:41.987Z,7.30
2019-02-16T14:06:19.321Z,6.17
2019-02-16T14:09:00.335Z,6.97
2019-02-16T14:11:37.173Z,6.37
2019-02-16T14:14:32.727Z,6.30
2019-02-16T14:17:29.453Z,6.60
2019-02-16T14:19:58.711Z,7.20
2019-02-16T14:22:27.844Z,5.53
2019-02-16T14:24:59.532Z,4.93
2019-02-16T14:27:28.677Z,6.37
2019-02-16T14:29:57.878Z,7.17
2019-02-16T14:32:27.032Z,5.50
2019-02-16T14:34:56.600Z,6.03
2019-02-16T14:37:43.483Z,5.27
2019-02-16T14:40:12.586Z,8.63
2019-02-16T14:42:42.132Z,6.50
2019-02-16T14:45:12.417Z,8.07
2019-02-16T14:47:54.023Z,7.07
2019-02-16T14:50:23.144Z,6.03
2019-02-16T14:52:52.305Z,5.27
2019-02-16T14:55:21.437Z,7.80
2019-02-16T14:57:50.605Z,9.17
2019-02-16T15:00:20.407Z,7.70
2019-02-16T15:02:49.889Z,5.70
2019-02-16T15:05:19.037Z,6.90
2019-02-16T15:07:48.415Z,6.23
2019-02-16T15:10:17.973Z,6.27
2019-02-16T15:12:47.127Z,5.80
2019-02-16T15:15:16.222Z,7.17
2019-02-16T15:17:45.391Z,8.80
2019-02-16T15:20:14.566Z,6.77
2019-02-16T15:22:43.663Z,6.10
2019-02-16T15:25:12.818Z,7.40
2019-02-16T15:27:41.918Z,6.27
2019-02-16T15:30:14.500Z,5.93
2019-02-16T15:32:44.024Z,7.13
2019-02-16T15:35:13.314Z,10.07
2019-02-16T15:37:42.514Z,9.23
2019-02-16T15:40:11.673Z,6.60
2019-02-16T15:42:40.798Z,6.90
2019-02-16T15:45:13.063Z,9.50
2019-02-16T15:47:42.294Z,11.80
2019-02-16T15:50:12.492Z,9.80
2019-02-16T15:52:41.997Z,6.80
2019-02-16T15:55:11.630Z,9.87
2019-02-16T15:57:40.997Z,13.80
2019-02-16T16:00:17.174Z,9.33
2019-02-16T16:02:46.289Z,40.93
2019-02-16T16:05:15.705Z,45.13
2019-02-16T16:07:47.662Z,13.87
2019-02-16T16:10:38.047Z,6.47
2019-02-16T16:13:29.083Z,6.63
2019-02-16T16:16:14.030Z,6.93
2019-02-16T16:18:58.877Z,5.67
2019-02-16T16:22:02.433Z,8.43
2019-02-16T16:24:56.863Z,9.43
2019-02-16T16:27:53.396Z,9.03
2019-02-16T16:30:39.712Z,6.90
2019-02-16T16:33:26.644Z,7.83
2019-02-16T16:36:05.519Z,7.77
2019-02-16T16:38:52.194Z,8.03
2019-02-16T16:41:55.491Z,9.80
2019-02-16T16:44:55.592Z,108.63
2019-02-16T16:47:39.429Z,51.87
2019-02-16T16:50:27.605Z,29.00
2019-02-16T16:53:14.309Z,62.50
2019-02-16T16:56:08.577Z,47.00
2019-02-16T16:58:50.257Z,19.33
2019-02-16T17:01:27.477Z,13.53
2019-02-16T17:04:06.879Z,14.80
2019-02-16T17:06:58.002Z,22.93
2019-02-16T17:09:38.647Z,16.27
2019-02-16T17:12:36.065Z,12.50
2019-02-16T17:15:23.285Z,9.10
2019-02-16T17:18:06.326Z,22.63
2019-02-16T17:20:57.589Z,22.20
2019-02-16T17:23:44.601Z,28.40
2019-02-16T17:26:22.334Z,26.53
2019-02-16T17:29:13.476Z,9.90
2019-02-16T17:31:49.145Z,10.67
2019-02-16T17:34:34.814Z,8.17
2019-02-16T17:37:35.415Z,9.57
2019-02-16T17:40:19.703Z,11.40
2019-02-16T17:43:01.544Z,10.97
2019-02-16T17:45:56.637Z,9.00
2019-02-16T17:48:32.064Z,11.90
2019-02-16T17:51:18.883Z,9.70
2019-02-16T17:54:19.325Z,10.17
2019-02-16T17:57:13.698Z,9.27
2019-02-16T18:00:01.786Z,9.87
2019-02-16T18:02:48.500Z,10.27
2019-02-16T18:05:30.413Z,10.87
2019-02-16T18:08:17.418Z,11.07
2019-02-16T18:11:07.033Z,11.83
2019-02-16T18:13:42.465Z,14.17
2019-02-16T18:16:32.319Z,14.50
2019-02-16T18:19:10.216Z,13.93
2019-02-16T18:21:53.638Z,11.83
2019-02-16T18:24:40.165Z,12.83
2019-02-16T18:27:46.610Z,12.90
2019-02-16T18:30:34.795Z,11.63
2019-02-16T18:33:22.935Z,10.57
2019-02-16T18:36:08.235Z,10.70
2019-02-16T18:38:59.259Z,12.47
2019-02-16T18:41:46.649Z,11.70
2019-02-16T18:44:33.786Z,13.93
2019-02-16T18:47:23.763Z,12.33
2019-02-16T18:50:15.150Z,12.73
2019-02-16T18:53:02.895Z,15.63
2019-02-16T18:56:00.451Z,12.77
2019-02-16T18:58:43.501Z,16.03
2019-02-16T19:01:40.893Z,14.63
2019-02-16T19:04:31.934Z,13.80
2019-02-16T19:07:26.354Z,31.00
2019-02-16T19:10:26.794Z,25.87
2019-02-16T19:13:03.433Z,19.30
2019-02-16T19:15:42.706Z,33.30
2019-02-16T19:18:33.705Z,42.93
2019-02-16T19:21:12.091Z,51.83
2019-02-16T19:23:52.062Z,54.60
2019-02-16T19:26:30.411Z,37.67
2019-02-16T19:29:04.708Z,33.07
2019-02-16T19:32:01.964Z,29.33
2019-02-16T19:34:39.653Z,24.00
2019-02-16T19:37:39.928Z,24.73
2019-02-16T19:40:27.245Z,20.00
2019-02-16T19:43:10.373Z,18.27
2019-02-16T19:45:54.483Z,19.63
2019-02-16T19:49:00.885Z,19.30
2019-02-16T19:51:36.892Z,20.43
2019-02-16T19:54:23.569Z,28.23
2019-02-16T19:57:10.184Z,25.20
2019-02-16T20:00:10.730Z,36.70
2019-02-16T20:03:02.173Z,36.37
2019-02-16T20:05:55.984Z,30.03
2019-02-16T20:08:42.629Z,32.90
2019-02-16T20:11:22.027Z,40.20
2019-02-16T20:14:07.949Z,43.77
2019-02-16T20:16:43.357Z,39.77
2019-02-16T20:19:43.693Z,154.10
2019-02-16T20:22:33.146Z,154.40
2019-02-16T20:25:20.111Z,82.47
2019-02-16T20:27:58.990Z,96.07
2019-02-16T20:30:53.517Z,79.83
2019-02-16T20:33:40.889Z,65.03
2019-02-16T20:36:47.153Z,62.43
2019-02-16T20:39:40.894Z,56.90
2019-02-16T20:42:19.351Z,56.23
2019-02-16T20:45:10.434Z,58.50
2019-02-16T20:47:48.431Z,50.17
2019-02-16T20:50:31.659Z,40.27
2019-02-16T20:53:23.353Z,45.30
2019-02-16T20:56:14.535Z,42.50
2019-02-16T20:59:08.858Z,35.27
2019-02-16T21:01:53.044Z,32.03
2019-02-16T21:04:53.302Z,35.10
2019-02-16T21:07:50.778Z,38.87
2019-02-16T21:10:26.731Z,39.00
2019-02-16T21:13:02.818Z,34.70
2019-02-16T21:15:57.220Z,36.07
2019-02-16T21:18:34.931Z,33.50
2019-02-16T21:21:26.187Z,37.43
2019-02-16T21:24:17.273Z,30.77
2019-02-16T21:27:05.462Z,29.23
2019-02-16T21:29:49.039Z,26.53
2019-02-16T21:32:26.336Z,23.73
2019-02-16T21:35:07.298Z,27.77
2019-02-16T21:37:53.455Z,23.43
2019-02-16T21:40:56.974Z,24.70
2019-02-16T21:44:00.078Z,24.07
2019-02-16T21:46:48.201Z,22.03
2019-02-16T21:49:53.841Z,21.13
2019-02-16T21:52:50.374Z,20.47
2019-02-16T21:55:29.240Z,19.83
2019-02-16T21:58:26.754Z,23.77
2019-02-16T22:01:17.202Z,19.47
2019-02-16T22:04:00.951Z,19.30
2019-02-16T22:06:55.168Z,20.53
2019-02-16T22:09:46.165Z,21.20
2019-02-16T22:12:37.052Z,26.03
2019-02-16T22:15:07.078Z,25.30
2019-02-16T22:17:36.235Z,20.83
2019-02-16T22:20:06.028Z,17.03
2019-02-16T22:22:35.162Z,21.43
2019-02-16T22:25:04.367Z,22.20
2019-02-16T22:27:33.831Z,19.57
2019-02-16T22:30:02.968Z,21.53
2019-02-16T22:32:32.132Z,18.53
2019-02-16T22:35:01.251Z,17.57
2019-02-16T22:37:30.373Z,18.77
2019-02-16T22:39:59.564Z,20.73
2019-02-16T22:42:28.802Z,18.43
2019-02-16T22:44:57.972Z,17.63
2019-02-16T22:47:27.142Z,20.13
2019-02-16T22:49:56.404Z,18.43
2019-02-16T22:52:25.551Z,18.00
2019-02-16T22:54:54.806Z,21.03
2019-02-16T22:57:23.963Z,19.17
2019-02-16T22:59:53.103Z,19.20
2019-02-16T23:02:22.223Z,18.53
2019-02-16T23:04:51.583Z,17.17
2019-02-16T23:07:20.801Z,19.23
2019-02-16T23:09:53.117Z,18.60
2019-02-16T23:12:22.558Z,21.37
2019-02-16T23:14:51.805Z,20.90
2019-02-16T23:17:20.971Z,20.40
2019-02-16T23:19:50.146Z,17.77
2019-02-16T23:22:19.547Z,20.30
2019-02-16T23:24:48.680Z,19.33
2019-02-16T23:27:17.837Z,18.00
2019-02-16T23:29:46.972Z,17.63
2019-02-16T23:32:16.172Z,18.20
2019-02-16T23:34:45.321Z,18.37
2019-02-16T23:37:14.435Z,19.93
2019-02-16T23:39:43.630Z,22.67
2019-02-16T23:42:12.753Z,21.60
2019-02-16T23:44:41.939Z,23.57
2019-02-16T23:47:11.417Z,20.13
2019-02-16T23:49:40.546Z,20.37
2019-02-16T23:52:09.712Z,19.13
2019-02-16T23:54:38.900Z,23.10
2019-02-16T23:57:08.118Z,19.53
2019-02-16T23:59:37.237Z,22.63
